sensor_id;sensor_type;location;lat;lon;timestamp;P1;durP1;ratioP1;P2;durP2;ratioP2
8675;SDS011;4375;52.486;13.424;2023-12-29T00:02:09;13.90;;;2.03;;
8675;SDS011;4375;52.486;13.424;2023-12-29T00:04:35;16.27;;;2.37;;
8675;SDS011;4375;52.486;13.424;2023-12-29T00:07:01;14.77;;;2.13;;
8675;SDS011;4375;52.486;13.424;2023-12-29T00:09:27;17.13;;;2.10;;
8675;SDS011;4375;52.486;13.424;2023-12-29T00:11:53;13.97;;;2.17;;
8675;SDS011;4375;52.486;13.424;2023-12-29T00:14:22;14.03;;;2.10;;
8675;SDS011;4375;52.486;13.424;2023-12-29T00:16:47;14.60;;;2.20;;
8675;SDS011;4375;52.486;13.424;2023-12-29T00:19:13;14.07;;;2.23;;
8675;SDS011;4375;52.486;13.424;2023-12-29T00:21:39;18.50;;;2.50;;
8675;SDS011;4375;52.486;13.424;2023-12-29T00:24:05;14.73;;;2.47;;
8675;SDS011;4375;52.486;13.424;2023-12-29T00:26:31;18.77;;;2.13;;
8675;SDS011;4375;52.486;13.424;2023-12-29T00:28:56;14.33;;;2.73;;
8675;SDS011;4375;52.486;13.424;2023-12-29T00:31:22;14.50;;;1.90;;
8675;SDS011;4375;52.486;13.424;2023-12-29T00:33:48;14.40;;;2.20;;
8675;SDS011;4375;52.486;13.424;2023-12-29T00:36:17;14.80;;;2.43;;
8675;SDS011;4375;52.486;13.424;2023-12-29T00:38:43;16.63;;;2.27;;
8675;SDS011;4375;52.486;13.424;2023-12-29T00:41:09;14.27;;;2.30;;
8675;SDS011;4375;52.486;13.424;2023-12-29T00:43:35;14.10;;;2.20;;
8675;SDS011;4375;52.486;13.424;2023-12-29T00:46:04;16.73;;;2.20;;
8675;SDS011;4375;52.486;13.424;2023-12-29T00:48:30;16.37;;;2.70;;
8675;SDS011;4375;52.486;13.424;2023-12-29T00:50:57;16.50;;;2.33;;
8675;SDS011;4375;52.486;13.424;2023-12-29T00:53:22;15.63;;;2.30;;
8675;SDS011;4375;52.486;13.424;2023-12-29T00:55:48;14.40;;;2.00;;
8675;SDS011;4375;52.486;13.424;2023-12-29T00:58:14;15.50;;;2.13;;
8675;SDS011;4375;52.486;13.424;2023-12-29T01:00:39;14.67;;;2.63;;
8675;SDS011;4375;52.486;13.424;2023-12-29T01:03:05;15.47;;;2.10;;
8675;SDS011;4375;52.486;13.424;2023-12-29T01:05:31;14.10;;;2.10;;
8675;SDS011;4375;52.486;13.424;2023-12-29T01:07:56;19.00;;;2.40;;
8675;SDS011;4375;52.486;13.424;2023-12-29T01:10:22;17.10;;;3.20;;
8675;SDS011;4375;52.486;13.424;2023-12-29T01:12:48;14.50;;;2.03;;
8675;SDS011;4375;52.486;13.424;2023-12-29T01:15:13;15.70;;;2.23;;
8675;SDS011;4375;52.486;13.424;2023-12-29T01:17:39;14.43;;;1.90;;
8675;SDS011;4375;52.486;13.424;2023-12-29T01:20:05;13.80;;;2.13;;
8675;SDS011;4375;52.486;13.424;2023-12-29T01:22:31;16.33;;;2.07;;
8675;SDS011;4375;52.486;13.424;2023-12-29T01:25:00;15.30;;;2.00;;
8675;SDS011;4375;52.486;13.424;2023-12-29T01:27:26;15.50;;;2.10;;
8675;SDS011;4375;52.486;13.424;2023-12-29T01:29:51;14.33;;;1.93;;
8675;SDS011;4375;52.486;13.424;2023-12-29T01:32:18;19.10;;;2.80;;
8675;SDS011;4375;52.486;13.424;2023-12-29T01:34:44;15.03;;;2.20;;
8675;SDS011;4375;52.486;13.424;2023-12-29T01:37:09;16.20;;;2.10;;
8675;SDS011;4375;52.486;13.424;2023-12-29T01:39:35;15.43;;;2.20;;
8675;SDS011;4375;52.486;13.424;2023-12-29T01:42:01;14.13;;;1.97;;
8675;SDS011;4375;52.486;13.424;2023-12-29T01:44:27;16.47;;;2.10;;
8675;SDS011;4375;52.486;13.424;2023-12-29T01:46:56;16.13;;;2.30;;
8675;SDS011;4375;52.486;13.424;2023-12-29T01:49:27;15.70;;;2.40;;
8675;SDS011;4375;52.486;13.424;2023-12-29T01:51:57;14.43;;;2.30;;
8675;SDS011;4375;52.486;13.424;2023-12-29T01:54:25;16.50;;;2.60;;
8675;SDS011;4375;52.486;13.424;2023-12-29T01:56:56;20.23;;;1.90;;
8675;SDS011;4375;52.486;13.424;2023-12-29T01:59:25;15.37;;;2.20;;
8675;SDS011;4375;52.486;13.424;2023-12-29T02:01:52;15.03;;;1.93;;
8675;SDS011;4375;52.486;13.424;2023-12-29T02:04:23;14.60;;;2.00;;
8675;SDS011;4375;52.486;13.424;2023-12-29T02:06:50;15.00;;;1.90;;
8675;SDS011;4375;52.486;13.424;2023-12-29T02:09:17;15.03;;;2.10;;
8675;SDS011;4375;52.486;13.424;2023-12-29T02:11:43;23.70;;;3.00;;
8675;SDS011;4375;52.486;13.424;2023-12-29T02:14:10;21.37;;;2.37;;
8675;SDS011;4375;52.486;13.424;2023-12-29T02:22:09;16.03;;;2.47;;
8675;SDS011;4375;52.486;13.424;2023-12-29T02:24:35;14.03;;;1.93;;
8675;SDS011;4375;52.486;13.424;2023-12-29T02:29:33;15.77;;;2.00;;
8675;SDS011;4375;52.486;13.424;2023-12-29T02:32:00;15.30;;;2.30;;
8675;SDS011;4375;52.486;13.424;2023-12-29T02:34:29;15.10;;;2.20;;
8675;SDS011;4375;52.486;13.424;2023-12-29T02:36:56;16.20;;;2.30;;
8675;SDS011;4375;52.486;13.424;2023-12-29T02:39:23;15.77;;;2.57;;
8675;SDS011;4375;52.486;13.424;2023-12-29T02:41:49;15.10;;;2.23;;
8675;SDS011;4375;52.486;13.424;2023-12-29T02:44:15;14.10;;;2.20;;
8675;SDS011;4375;52.486;13.424;2023-12-29T02:46:40;14.60;;;2.07;;
8675;SDS011;4375;52.486;13.424;2023-12-29T02:49:06;15.90;;;2.27;;
8675;SDS011;4375;52.486;13.424;2023-12-29T02:51:36;14.10;;;2.00;;
8675;SDS011;4375;52.486;13.424;2023-12-29T02:54:01;16.93;;;2.40;;
8675;SDS011;4375;52.486;13.424;2023-12-29T02:56:27;14.87;;;2.47;;
8675;SDS011;4375;52.486;13.424;2023-12-29T02:58:53;15.13;;;2.30;;
8675;SDS011;4375;52.486;13.424;2023-12-29T03:01:19;14.30;;;1.80;;
8675;SDS011;4375;52.486;13.424;2023-12-29T03:03:44;15.03;;;2.20;;
8675;SDS011;4375;52.486;13.424;2023-12-29T03:06:10;14.40;;;1.97;;
8675;SDS011;4375;52.486;13.424;2023-12-29T03:08:35;15.17;;;2.10;;
8675;SDS011;4375;52.486;13.424;2023-12-29T03:11:01;14.07;;;1.90;;
8675;SDS011;4375;52.486;13.424;2023-12-29T03:13:27;14.10;;;1.93;;
8675;SDS011;4375;52.486;13.424;2023-12-29T03:15:52;13.83;;;1.83;;
8675;SDS011;4375;52.486;13.424;2023-12-29T03:18:18;14.83;;;2.20;;
8675;SDS011;4375;52.486;13.424;2023-12-29T03:20:43;13.90;;;1.70;;
8675;SDS011;4375;52.486;13.424;2023-12-29T03:23:09;14.50;;;2.13;;
8675;SDS011;4375;52.486;13.424;2023-12-29T03:25:34;13.83;;;1.90;;
8675;SDS011;4375;52.486;13.424;2023-12-29T03:28:00;14.60;;;2.10;;
8675;SDS011;4375;52.486;13.424;2023-12-29T03:30:26;14.00;;;1.90;;
8675;SDS011;4375;52.486;13.424;2023-12-29T03:32:51;15.03;;;2.10;;
8675;SDS011;4375;52.486;13.424;2023-12-29T03:35:17;13.60;;;1.90;;
8675;SDS011;4375;52.486;13.424;2023-12-29T03:37:43;15.77;;;2.10;;
8675;SDS011;4375;52.486;13.424;2023-12-29T03:40:08;14.27;;;1.80;;
8675;SDS011;4375;52.486;13.424;2023-12-29T03:42:35;14.80;;;1.80;;
8675;SDS011;4375;52.486;13.424;2023-12-29T03:45:00;14.13;;;2.00;;
8675;SDS011;4375;52.486;13.424;2023-12-29T03:47:26;14.03;;;1.80;;
8675;SDS011;4375;52.486;13.424;2023-12-29T03:49:53;14.10;;;2.00;;
8675;SDS011;4375;52.486;13.424;2023-12-29T03:52:18;13.70;;;1.70;;
8675;SDS011;4375;52.486;13.424;2023-12-29T03:54:44;14.07;;;1.77;;
8675;SDS011;4375;52.486;13.424;2023-12-29T03:57:09;13.90;;;1.60;;
8675;SDS011;4375;52.486;13.424;2023-12-29T03:59:38;16.20;;;1.87;;
8675;SDS011;4375;52.486;13.424;2023-12-29T04:02:03;14.80;;;1.80;;
8675;SDS011;4375;52.486;13.424;2023-12-29T04:04:29;15.33;;;1.60;;
8675;SDS011;4375;52.486;13.424;2023-12-29T04:06:55;13.53;;;1.50;;
8675;SDS011;4375;52.486;13.424;2023-12-29T04:09:21;17.30;;;2.20;;
8675;SDS011;4375;52.486;13.424;2023-12-29T04:11:46;14.43;;;1.80;;
8675;SDS011;4375;52.486;13.424;2023-12-29T04:14:12;13.80;;;1.73;;
8675;SDS011;4375;52.486;13.424;2023-12-29T04:16:38;13.90;;;1.77;;
8675;SDS011;4375;52.486;13.424;2023-12-29T04:19:04;16.40;;;2.20;;
8675;SDS011;4375;52.486;13.424;2023-12-29T04:21:30;14.63;;;1.70;;
8675;SDS011;4375;52.486;13.424;2023-12-29T04:23:55;15.10;;;2.30;;
8675;SDS011;4375;52.486;13.424;2023-12-29T04:26:21;18.00;;;1.57;;
8675;SDS011;4375;52.486;13.424;2023-12-29T04:28:47;16.63;;;2.13;;
8675;SDS011;4375;52.486;13.424;2023-12-29T04:31:12;13.03;;;1.40;;
8675;SDS011;4375;52.486;13.424;2023-12-29T04:33:38;14.00;;;1.80;;
8675;SDS011;4375;52.486;13.424;2023-12-29T04:36:03;13.47;;;1.50;;
8675;SDS011;4375;52.486;13.424;2023-12-29T04:38:29;13.30;;;1.40;;
8675;SDS011;4375;52.486;13.424;2023-12-29T04:40:55;14.50;;;1.60;;
8675;SDS011;4375;52.486;13.424;2023-12-29T04:43:20;13.37;;;1.40;;
8675;SDS011;4375;52.486;13.424;2023-12-29T04:45:46;13.67;;;1.57;;
8675;SDS011;4375;52.486;13.424;2023-12-29T04:48:12;14.40;;;2.10;;
8675;SDS011;4375;52.486;13.424;2023-12-29T04:50:37;13.80;;;1.47;;
8675;SDS011;4375;52.486;13.424;2023-12-29T04:53:06;14.30;;;1.40;;
8675;SDS011;4375;52.486;13.424;2023-12-29T04:55:31;14.30;;;1.40;;
8675;SDS011;4375;52.486;13.424;2023-12-29T04:57:57;13.67;;;1.70;;
8675;SDS011;4375;52.486;13.424;2023-12-29T05:00:23;13.60;;;1.77;;
8675;SDS011;4375;52.486;13.424;2023-12-29T05:02:48;14.60;;;1.57;;
8675;SDS011;4375;52.486;13.424;2023-12-29T05:05:14;13.93;;;1.67;;
8675;SDS011;4375;52.486;13.424;2023-12-29T05:07:40;13.40;;;1.30;;
8675;SDS011;4375;52.486;13.424;2023-12-29T05:10:06;13.27;;;1.40;;
8675;SDS011;4375;52.486;13.424;2023-12-29T05:12:32;13.77;;;1.67;;
8675;SDS011;4375;52.486;13.424;2023-12-29T05:14:58;16.17;;;1.40;;
8675;SDS011;4375;52.486;13.424;2023-12-29T05:17:23;13.20;;;1.10;;
8675;SDS011;4375;52.486;13.424;2023-12-29T05:19:49;13.50;;;1.33;;
8675;SDS011;4375;52.486;13.424;2023-12-29T05:22:14;13.60;;;1.27;;
8675;SDS011;4375;52.486;13.424;2023-12-29T05:24:42;14.43;;;1.30;;
8675;SDS011;4375;52.486;13.424;2023-12-29T05:27:08;13.80;;;1.70;;
8675;SDS011;4375;52.486;13.424;2023-12-29T05:29:34;13.83;;;1.50;;
8675;SDS011;4375;52.486;13.424;2023-12-29T05:31:59;14.13;;;1.30;;
8675;SDS011;4375;52.486;13.424;2023-12-29T05:34:27;13.00;;;1.37;;
8675;SDS011;4375;52.486;13.424;2023-12-29T05:36:53;13.63;;;1.40;;
8675;SDS011;4375;52.486;13.424;2023-12-29T05:39:18;13.17;;;1.27;;
8675;SDS011;4375;52.486;13.424;2023-12-29T05:41:44;13.20;;;1.27;;
8675;SDS011;4375;52.486;13.424;2023-12-29T05:44:10;13.77;;;1.47;;
8675;SDS011;4375;52.486;13.424;2023-12-29T05:46:35;13.20;;;1.37;;
8675;SDS011;4375;52.486;13.424;2023-12-29T05:49:01;14.30;;;1.50;;
8675;SDS011;4375;52.486;13.424;2023-12-29T05:51:27;13.27;;;1.43;;
8675;SDS011;4375;52.486;13.424;2023-12-29T05:53:52;13.60;;;1.40;;
8675;SDS011;4375;52.486;13.424;2023-12-29T05:56:18;14.67;;;1.30;;
8675;SDS011;4375;52.486;13.424;2023-12-29T05:58:44;13.70;;;1.20;;
8675;SDS011;4375;52.486;13.424;2023-12-29T06:01:09;13.13;;;1.27;;
8675;SDS011;4375;52.486;13.424;2023-12-29T06:03:35;17.53;;;1.60;;
8675;SDS011;4375;52.486;13.424;2023-12-29T06:06:01;13.87;;;1.40;;
8675;SDS011;4375;52.486;13.424;2023-12-29T06:08:27;13.07;;;1.20;;
8675;SDS011;4375;52.486;13.424;2023-12-29T06:10:53;13.30;;;1.30;;
8675;SDS011;4375;52.486;13.424;2023-12-29T06:13:18;13.27;;;1.30;;
8675;SDS011;4375;52.486;13.424;2023-12-29T06:15:44;13.90;;;1.50;;
8675;SDS011;4375;52.486;13.424;2023-12-29T06:18:10;13.17;;;1.23;;
8675;SDS011;4375;52.486;13.424;2023-12-29T06:20:36;13.73;;;1.60;;
8675;SDS011;4375;52.486;13.424;2023-12-29T06:23:01;14.10;;;1.40;;
8675;SDS011;4375;52.486;13.424;2023-12-29T06:25:27;13.70;;;1.30;;
8675;SDS011;4375;52.486;13.424;2023-12-29T06:27:53;16.00;;;1.83;;
8675;SDS011;4375;52.486;13.424;2023-12-29T06:30:19;13.80;;;1.50;;
8675;SDS011;4375;52.486;13.424;2023-12-29T06:32:45;13.50;;;1.20;;
8675;SDS011;4375;52.486;13.424;2023-12-29T06:35:11;15.33;;;1.60;;
8675;SDS011;4375;52.486;13.424;2023-12-29T06:37:37;13.47;;;1.30;;
8675;SDS011;4375;52.486;13.424;2023-12-29T06:40:04;14.73;;;1.53;;
8675;SDS011;4375;52.486;13.424;2023-12-29T06:42:31;13.73;;;1.80;;
8675;SDS011;4375;52.486;13.424;2023-12-29T06:44:57;14.10;;;1.30;;
8675;SDS011;4375;52.486;13.424;2023-12-29T06:47:23;15.10;;;1.40;;
8675;SDS011;4375;52.486;13.424;2023-12-29T06:49:48;14.00;;;1.27;;
8675;SDS011;4375;52.486;13.424;2023-12-29T06:52:15;14.00;;;1.60;;
8675;SDS011;4375;52.486;13.424;2023-12-29T06:54:41;14.60;;;1.80;;
8675;SDS011;4375;52.486;13.424;2023-12-29T06:57:06;17.17;;;1.50;;
8675;SDS011;4375;52.486;13.424;2023-12-29T06:59:32;13.10;;;1.27;;
8675;SDS011;4375;52.486;13.424;2023-12-29T07:01:58;13.80;;;1.60;;
8675;SDS011;4375;52.486;13.424;2023-12-29T07:04:23;14.17;;;1.43;;
8675;SDS011;4375;52.486;13.424;2023-12-29T07:06:49;13.70;;;1.80;;
8675;SDS011;4375;52.486;13.424;2023-12-29T07:09:14;14.57;;;1.50;;
8675;SDS011;4375;52.486;13.424;2023-12-29T07:11:40;15.60;;;2.07;;
8675;SDS011;4375;52.486;13.424;2023-12-29T07:14:06;14.40;;;1.77;;
8675;SDS011;4375;52.486;13.424;2023-12-29T07:16:31;14.43;;;1.50;;
8675;SDS011;4375;52.486;13.424;2023-12-29T07:18:57;14.07;;;1.73;;
8675;SDS011;4375;52.486;13.424;2023-12-29T07:21:22;14.43;;;1.53;;
8675;SDS011;4375;52.486;13.424;2023-12-29T07:23:48;19.37;;;1.60;;
8675;SDS011;4375;52.486;13.424;2023-12-29T07:26:14;14.70;;;2.10;;
8675;SDS011;4375;52.486;13.424;2023-12-29T07:28:39;14.57;;;1.80;;
8675;SDS011;4375;52.486;13.424;2023-12-29T07:31:05;13.80;;;1.60;;
8675;SDS011;4375;52.486;13.424;2023-12-29T07:33:31;13.90;;;1.70;;
8675;SDS011;4375;52.486;13.424;2023-12-29T07:35:56;13.77;;;1.60;;
8675;SDS011;4375;52.486;13.424;2023-12-29T07:38:23;13.40;;;1.30;;
8675;SDS011;4375;52.486;13.424;2023-12-29T07:40:49;13.53;;;1.40;;
8675;SDS011;4375;52.486;13.424;2023-12-29T07:43:14;15.97;;;1.80;;
8675;SDS011;4375;52.486;13.424;2023-12-29T07:45:40;16.57;;;2.10;;
8675;SDS011;4375;52.486;13.424;2023-12-29T07:48:08;15.03;;;1.97;;
8675;SDS011;4375;52.486;13.424;2023-12-29T07:50:33;13.83;;;1.50;;
8675;SDS011;4375;52.486;13.424;2023-12-29T07:52:59;16.07;;;1.60;;
8675;SDS011;4375;52.486;13.424;2023-12-29T07:55:28;15.97;;;1.60;;
8675;SDS011;4375;52.486;13.424;2023-12-29T07:57:56;14.30;;;1.80;;
8675;SDS011;4375;52.486;13.424;2023-12-29T08:00:22;13.87;;;1.73;;
8675;SDS011;4375;52.486;13.424;2023-12-29T08:02:48;14.80;;;1.90;;
8675;SDS011;4375;52.486;13.424;2023-12-29T08:05:14;14.40;;;1.83;;
8675;SDS011;4375;52.486;13.424;2023-12-29T08:07:41;13.93;;;1.70;;
8675;SDS011;4375;52.486;13.424;2023-12-29T08:10:06;14.70;;;1.60;;
8675;SDS011;4375;52.486;13.424;2023-12-29T08:12:33;16.33;;;1.80;;
8675;SDS011;4375;52.486;13.424;2023-12-29T08:14:59;14.83;;;2.37;;
8675;SDS011;4375;52.486;13.424;2023-12-29T08:17:25;14.30;;;1.73;;
8675;SDS011;4375;52.486;13.424;2023-12-29T08:19:51;14.43;;;1.40;;
8675;SDS011;4375;52.486;13.424;2023-12-29T08:22:18;15.60;;;1.60;;
8675;SDS011;4375;52.486;13.424;2023-12-29T08:24:44;14.20;;;1.90;;
8675;SDS011;4375;52.486;13.424;2023-12-29T08:27:11;16.80;;;1.90;;
8675;SDS011;4375;52.486;13.424;2023-12-29T08:29:37;13.73;;;1.50;;
8675;SDS011;4375;52.486;13.424;2023-12-29T08:32:03;14.00;;;1.47;;
8675;SDS011;4375;52.486;13.424;2023-12-29T08:34:29;14.53;;;1.60;;
8675;SDS011;4375;52.486;13.424;2023-12-29T08:36:55;16.67;;;2.00;;
8675;SDS011;4375;52.486;13.424;2023-12-29T08:39:21;17.97;;;1.70;;
8675;SDS011;4375;52.486;13.424;2023-12-29T08:41:47;14.20;;;1.73;;
8675;SDS011;4375;52.486;13.424;2023-12-29T08:44:14;14.30;;;1.80;;
8675;SDS011;4375;52.486;13.424;2023-12-29T08:46:40;14.60;;;1.57;;
8675;SDS011;4375;52.486;13.424;2023-12-29T08:49:06;15.40;;;1.50;;
8675;SDS011;4375;52.486;13.424;2023-12-29T08:51:32;15.33;;;1.93;;
8675;SDS011;4375;52.486;13.424;2023-12-29T08:53:57;13.80;;;1.60;;
8675;SDS011;4375;52.486;13.424;2023-12-29T08:56:23;15.00;;;2.10;;
8675;SDS011;4375;52.486;13.424;2023-12-29T08:58:49;15.27;;;1.70;;
8675;SDS011;4375;52.486;13.424;2023-12-29T09:01:14;16.10;;;1.77;;
8675;SDS011;4375;52.486;13.424;2023-12-29T09:03:40;14.17;;;1.50;;
8675;SDS011;4375;52.486;13.424;2023-12-29T09:06:06;15.20;;;1.90;;
8675;SDS011;4375;52.486;13.424;2023-12-29T09:08:33;13.60;;;1.50;;
8675;SDS011;4375;52.486;13.424;2023-12-29T09:10:59;15.33;;;1.70;;
8675;SDS011;4375;52.486;13.424;2023-12-29T09:13:25;15.13;;;1.63;;
8675;SDS011;4375;52.486;13.424;2023-12-29T09:15:51;15.40;;;1.60;;
8675;SDS011;4375;52.486;13.424;2023-12-29T09:18:18;15.40;;;2.00;;
8675;SDS011;4375;52.486;13.424;2023-12-29T09:20:43;15.13;;;2.30;;
8675;SDS011;4375;52.486;13.424;2023-12-29T09:23:09;19.13;;;1.70;;
8675;SDS011;4375;52.486;13.424;2023-12-29T09:25:35;15.43;;;1.87;;
8675;SDS011;4375;52.486;13.424;2023-12-29T09:28:00;16.73;;;1.70;;
8675;SDS011;4375;52.486;13.424;2023-12-29T09:30:26;17.43;;;1.70;;
8675;SDS011;4375;52.486;13.424;2023-12-29T09:32:52;13.37;;;1.40;;
8675;SDS011;4375;52.486;13.424;2023-12-29T09:35:17;14.30;;;1.90;;
8675;SDS011;4375;52.486;13.424;2023-12-29T09:37:45;16.10;;;1.80;;
8675;SDS011;4375;52.486;13.424;2023-12-29T09:40:12;15.80;;;2.50;;
8675;SDS011;4375;52.486;13.424;2023-12-29T09:42:38;15.07;;;1.50;;
8675;SDS011;4375;52.486;13.424;2023-12-29T09:45:07;14.63;;;1.43;;
8675;SDS011;4375;52.486;13.424;2023-12-29T09:47:37;13.73;;;1.60;;
8675;SDS011;4375;52.486;13.424;2023-12-29T09:50:05;16.33;;;1.60;;
8675;SDS011;4375;52.486;13.424;2023-12-29T09:52:38;14.77;;;1.63;;
8675;SDS011;4375;52.486;13.424;2023-12-29T09:55:04;15.60;;;1.93;;
8675;SDS011;4375;52.486;13.424;2023-12-29T09:57:34;14.93;;;1.70;;
8675;SDS011;4375;52.486;13.424;2023-12-29T10:00:02;15.13;;;2.00;;
8675;SDS011;4375;52.486;13.424;2023-12-29T10:02:28;14.10;;;1.70;;
8675;SDS011;4375;52.486;13.424;2023-12-29T10:04:54;17.53;;;1.73;;
8675;SDS011;4375;52.486;13.424;2023-12-29T10:07:24;14.60;;;1.70;;
8675;SDS011;4375;52.486;13.424;2023-12-29T10:09:52;13.97;;;1.87;;
8675;SDS011;4375;52.486;13.424;2023-12-29T10:12:26;14.00;;;1.63;;
8675;SDS011;4375;52.486;13.424;2023-12-29T10:15:06;14.23;;;1.60;;
8675;SDS011;4375;52.486;13.424;2023-12-29T10:20:23;17.47;;;1.80;;
8675;SDS011;4375;52.486;13.424;2023-12-29T10:25:38;14.50;;;1.60;;
8675;SDS011;4375;52.486;13.424;2023-12-29T10:28:05;15.17;;;1.40;;
8675;SDS011;4375;52.486;13.424;2023-12-29T10:30:31;16.33;;;1.70;;
8675;SDS011;4375;52.486;13.424;2023-12-29T10:33:00;18.20;;;1.80;;
8675;SDS011;4375;52.486;13.424;2023-12-29T10:35:26;15.83;;;1.53;;
8675;SDS011;4375;52.486;13.424;2023-12-29T10:37:52;14.73;;;1.50;;
8675;SDS011;4375;52.486;13.424;2023-12-29T10:40:18;16.00;;;1.70;;
8675;SDS011;4375;52.486;13.424;2023-12-29T10:43:05;15.90;;;1.87;;
8675;SDS011;4375;52.486;13.424;2023-12-29T10:45:32;15.30;;;1.40;;
8675;SDS011;4375;52.486;13.424;2023-12-29T10:48:01;14.63;;;1.63;;
8675;SDS011;4375;52.486;13.424;2023-12-29T10:50:28;15.27;;;1.73;;
8675;SDS011;4375;52.486;13.424;2023-12-29T10:55:38;14.47;;;1.43;;
8675;SDS011;4375;52.486;13.424;2023-12-29T10:58:04;15.97;;;1.60;;
8675;SDS011;4375;52.486;13.424;2023-12-29T11:00:31;14.20;;;1.63;;
8675;SDS011;4375;52.486;13.424;2023-12-29T11:02:57;18.43;;;1.90;;
8675;SDS011;4375;52.486;13.424;2023-12-29T11:05:25;14.70;;;1.70;;
8675;SDS011;4375;52.486;13.424;2023-12-29T11:07:51;16.73;;;2.57;;
8675;SDS011;4375;52.486;13.424;2023-12-29T11:10:20;15.07;;;1.50;;
8675;SDS011;4375;52.486;13.424;2023-12-29T11:12:46;16.73;;;1.70;;
8675;SDS011;4375;52.486;13.424;2023-12-29T11:15:13;14.10;;;1.30;;
8675;SDS011;4375;52.486;13.424;2023-12-29T11:17:41;14.17;;;1.40;;
8675;SDS011;4375;52.486;13.424;2023-12-29T11:20:14;14.77;;;1.70;;
8675;SDS011;4375;52.486;13.424;2023-12-29T11:22:41;16.33;;;1.90;;
8675;SDS011;4375;52.486;13.424;2023-12-29T11:25:08;16.57;;;2.07;;
8675;SDS011;4375;52.486;13.424;2023-12-29T11:27:35;15.70;;;1.63;;
8675;SDS011;4375;52.486;13.424;2023-12-29T11:30:01;14.33;;;1.40;;
8675;SDS011;4375;52.486;13.424;2023-12-29T11:32:41;18.53;;;1.40;;
8675;SDS011;4375;52.486;13.424;2023-12-29T11:35:22;14.20;;;1.30;;
8675;SDS011;4375;52.486;13.424;2023-12-29T11:43:20;16.10;;;1.60;;
8675;SDS011;4375;52.486;13.424;2023-12-29T11:45:45;14.73;;;1.70;;
8675;SDS011;4375;52.486;13.424;2023-12-29T11:48:11;14.27;;;1.70;;
8675;SDS011;4375;52.486;13.424;2023-12-29T11:50:38;15.20;;;1.73;;
8675;SDS011;4375;52.486;13.424;2023-12-29T11:53:07;19.30;;;1.90;;
8675;SDS011;4375;52.486;13.424;2023-12-29T11:55:36;16.50;;;2.10;;
8675;SDS011;4375;52.486;13.424;2023-12-29T12:00:53;14.50;;;1.73;;
8675;SDS011;4375;52.486;13.424;2023-12-29T12:03:23;14.50;;;1.50;;
8675;SDS011;4375;52.486;13.424;2023-12-29T12:05:54;16.43;;;1.70;;
8675;SDS011;4375;52.486;13.424;2023-12-29T12:08:29;18.03;;;1.90;;
8675;SDS011;4375;52.486;13.424;2023-12-29T12:14:11;15.70;;;1.60;;
8675;SDS011;4375;52.486;13.424;2023-12-29T12:16:56;16.40;;;1.70;;
8675;SDS011;4375;52.486;13.424;2023-12-29T12:19:23;16.17;;;1.57;;
8675;SDS011;4375;52.486;13.424;2023-12-29T12:21:53;15.60;;;1.70;;
8675;SDS011;4375;52.486;13.424;2023-12-29T12:24:20;15.10;;;1.50;;
8675;SDS011;4375;52.486;13.424;2023-12-29T12:26:45;17.67;;;1.70;;
8675;SDS011;4375;52.486;13.424;2023-12-29T12:29:12;15.20;;;1.50;;
8675;SDS011;4375;52.486;13.424;2023-12-29T12:31:57;13.70;;;1.47;;
8675;SDS011;4375;52.486;13.424;2023-12-29T12:34:23;14.47;;;1.53;;
8675;SDS011;4375;52.486;13.424;2023-12-29T12:36:52;14.27;;;1.50;;
8675;SDS011;4375;52.486;13.424;2023-12-29T12:39:21;15.47;;;1.60;;
8675;SDS011;4375;52.486;13.424;2023-12-29T12:41:48;15.80;;;1.87;;
8675;SDS011;4375;52.486;13.424;2023-12-29T12:44:14;14.63;;;1.50;;
8675;SDS011;4375;52.486;13.424;2023-12-29T12:49:12;15.87;;;1.70;;
8675;SDS011;4375;52.486;13.424;2023-12-29T12:51:38;14.50;;;1.57;;
8675;SDS011;4375;52.486;13.424;2023-12-29T12:54:04;15.07;;;1.87;;
8675;SDS011;4375;52.486;13.424;2023-12-29T12:56:30;13.60;;;1.40;;
8675;SDS011;4375;52.486;13.424;2023-12-29T12:58:56;15.13;;;1.80;;
8675;SDS011;4375;52.486;13.424;2023-12-29T13:01:23;17.33;;;1.93;;
8675;SDS011;4375;52.486;13.424;2023-12-29T13:03:50;14.47;;;1.60;;
8675;SDS011;4375;52.486;13.424;2023-12-29T13:06:16;14.40;;;2.00;;
8675;SDS011;4375;52.486;13.424;2023-12-29T13:08:43;14.30;;;2.23;;
8675;SDS011;4375;52.486;13.424;2023-12-29T13:11:09;17.03;;;2.07;;
8675;SDS011;4375;52.486;13.424;2023-12-29T13:16:07;15.23;;;1.60;;
8675;SDS011;4375;52.486;13.424;2023-12-29T13:18:33;16.07;;;1.87;;
8675;SDS011;4375;52.486;13.424;2023-12-29T13:21:00;13.80;;;1.60;;
8675;SDS011;4375;52.486;13.424;2023-12-29T13:23:27;14.30;;;1.67;;
8675;SDS011;4375;52.486;13.424;2023-12-29T13:25:56;14.90;;;1.90;;
8675;SDS011;4375;52.486;13.424;2023-12-29T13:28:24;14.30;;;1.40;;
8675;SDS011;4375;52.486;13.424;2023-12-29T13:30:51;14.60;;;1.93;;
8675;SDS011;4375;52.486;13.424;2023-12-29T13:33:35;15.07;;;1.70;;
8675;SDS011;4375;52.486;13.424;2023-12-29T13:36:18;16.30;;;2.00;;
8675;SDS011;4375;52.486;13.424;2023-12-29T13:38:56;15.10;;;1.53;;
8675;SDS011;4375;52.486;13.424;2023-12-29T13:41:28;15.77;;;1.60;;
8675;SDS011;4375;52.486;13.424;2023-12-29T13:43:55;13.73;;;1.23;;
8675;SDS011;4375;52.486;13.424;2023-12-29T13:46:22;17.80;;;1.60;;
8675;SDS011;4375;52.486;13.424;2023-12-29T13:48:48;15.70;;;1.70;;
8675;SDS011;4375;52.486;13.424;2023-12-29T13:51:25;14.77;;;1.60;;
8675;SDS011;4375;52.486;13.424;2023-12-29T13:54:01;17.17;;;1.93;;
8675;SDS011;4375;52.486;13.424;2023-12-29T13:56:27;15.00;;;1.57;;
8675;SDS011;4375;52.486;13.424;2023-12-29T13:58:53;14.80;;;1.90;;
8675;SDS011;4375;52.486;13.424;2023-12-29T14:01:19;14.17;;;1.40;;
8675;SDS011;4375;52.486;13.424;2023-12-29T14:04:17;14.57;;;1.60;;
8675;SDS011;4375;52.486;13.424;2023-12-29T14:06:42;14.20;;;1.60;;
8675;SDS011;4375;52.486;13.424;2023-12-29T14:09:15;16.10;;;1.73;;
8675;SDS011;4375;52.486;13.424;2023-12-29T14:11:46;14.57;;;1.57;;
8675;SDS011;4375;52.486;13.424;2023-12-29T14:14:35;15.17;;;1.47;;
8675;SDS011;4375;52.486;13.424;2023-12-29T14:17:32;13.37;;;1.30;;
8675;SDS011;4375;52.486;13.424;2023-12-29T14:19:58;16.70;;;1.70;;
8675;SDS011;4375;52.486;13.424;2023-12-29T14:22:40;13.57;;;1.30;;
8675;SDS011;4375;52.486;13.424;2023-12-29T14:25:06;13.90;;;1.60;;
8675;SDS011;4375;52.486;13.424;2023-12-29T14:27:33;13.83;;;1.80;;
8675;SDS011;4375;52.486;13.424;2023-12-29T14:29:58;15.00;;;1.30;;
8675;SDS011;4375;52.486;13.424;2023-12-29T14:32:24;13.37;;;1.30;;
8675;SDS011;4375;52.486;13.424;2023-12-29T14:34:50;13.63;;;1.20;;
8675;SDS011;4375;52.486;13.424;2023-12-29T14:37:20;15.60;;;1.70;;
8675;SDS011;4375;52.486;13.424;2023-12-29T14:39:47;15.70;;;1.40;;
8675;SDS011;4375;52.486;13.424;2023-12-29T14:42:48;15.00;;;1.67;;
8675;SDS011;4375;52.486;13.424;2023-12-29T14:45:16;13.53;;;1.37;;
8675;SDS011;4375;52.486;13.424;2023-12-29T14:47:41;16.87;;;1.47;;
8675;SDS011;4375;52.486;13.424;2023-12-29T14:50:11;14.80;;;1.40;;
8675;SDS011;4375;52.486;13.424;2023-12-29T14:52:47;13.30;;;1.27;;
8675;SDS011;4375;52.486;13.424;2023-12-29T14:55:15;15.80;;;1.57;;
8675;SDS011;4375;52.486;13.424;2023-12-29T14:58:19;13.47;;;1.30;;
8675;SDS011;4375;52.486;13.424;2023-12-29T15:00:48;13.80;;;1.40;;
8675;SDS011;4375;52.486;13.424;2023-12-29T15:03:28;13.30;;;1.13;;
8675;SDS011;4375;52.486;13.424;2023-12-29T15:06:09;13.03;;;1.20;;
8675;SDS011;4375;52.486;13.424;2023-12-29T15:08:35;14.00;;;1.50;;
8675;SDS011;4375;52.486;13.424;2023-12-29T15:11:06;13.60;;;1.23;;
8675;SDS011;4375;52.486;13.424;2023-12-29T15:13:35;13.70;;;1.27;;
8675;SDS011;4375;52.486;13.424;2023-12-29T15:16:01;14.00;;;1.20;;
8675;SDS011;4375;52.486;13.424;2023-12-29T15:18:31;13.90;;;1.50;;
8675;SDS011;4375;52.486;13.424;2023-12-29T15:20:57;13.30;;;1.20;;
8675;SDS011;4375;52.486;13.424;2023-12-29T15:23:23;13.70;;;1.40;;